createdAt,value
2018-05-06T00:02:18.564Z,57.90
2018-05-06T00:04:44.526Z,57.90
2018-05-06T00:07:10.503Z,57.80
2018-05-06T00:09:37.224Z,57.60
2018-05-06T00:12:03.192Z,57.60
2018-05-06T00:14:29.950Z,57.20
2018-05-06T00:16:55.985Z,57.20
2018-05-06T00:19:21.970Z,57.10
2018-05-06T00:21:47.954Z,57.50
2018-05-06T00:24:14.655Z,57.20
2018-05-06T00:26:40.740Z,57.20
2018-05-06T00:29:07.446Z,58.30
2018-05-06T00:31:33.455Z,58.30
2018-05-06T00:36:31.252Z,58.50
2018-05-06T00:38:57.293Z,57.90
2018-05-06T00:41:23.267Z,58.10
2018-05-06T00:43:49.519Z,58.10
2018-05-06T00:46:15.479Z,57.90
2018-05-06T00:48:42.175Z,58.30
2018-05-06T00:51:08.843Z,58.40
2018-05-06T00:53:34.794Z,58.10
2018-05-06T00:56:00.767Z,58.00
2018-05-06T00:58:27.035Z,57.90
2018-05-06T01:00:53.017Z,57.90
2018-05-06T01:03:18.981Z,57.90
2018-05-06T01:05:45.006Z,57.70
2018-05-06T01:08:11.736Z,57.70
2018-05-06T01:10:37.725Z,57.70
2018-05-06T01:13:03.723Z,57.50
2018-05-06T01:15:30.430Z,57.80
2018-05-06T01:17:56.414Z,57.80
2018-05-06T01:20:23.150Z,57.40
2018-05-06T01:22:49.106Z,57.30
2018-05-06T01:25:16.066Z,57.90
2018-05-06T01:27:42.874Z,58.40
2018-05-06T01:30:08.841Z,58.40
2018-05-06T01:32:34.814Z,58.30
2018-05-06T01:35:01.530Z,58.10
2018-05-06T01:37:27.504Z,58.10
2018-05-06T01:39:53.462Z,58.40
2018-05-06T01:42:19.447Z,58.60
2018-05-06T01:44:46.142Z,58.90
2018-05-06T01:47:12.111Z,58.90
2018-05-06T01:49:38.081Z,58.70
2018-05-06T01:52:04.051Z,58.50
2018-05-06T01:54:30.050Z,58.60
2018-05-06T01:56:56.118Z,58.30
2018-05-06T01:59:22.077Z,58.30
2018-05-06T02:01:48.038Z,58.60
2018-05-06T02:04:14.009Z,58.00
2018-05-06T02:06:39.984Z,58.00
2018-05-06T02:09:05.942Z,57.70
2018-05-06T02:11:32.107Z,57.30
2018-05-06T02:13:58.098Z,58.50
2018-05-06T02:16:24.119Z,57.90
2018-05-06T02:18:50.134Z,58.10
2018-05-06T02:21:16.089Z,57.70
2018-05-06T02:23:42.046Z,57.00
2018-05-06T02:26:08.090Z,56.90
2018-05-06T02:28:34.060Z,56.60
2018-05-06T02:31:00.762Z,55.90
2018-05-06T02:33:26.778Z,55.90
2018-05-06T02:35:52.746Z,56.40
2018-05-06T02:38:18.716Z,56.40
2018-05-06T02:40:44.744Z,56.00
2018-05-06T02:43:10.714Z,55.90
2018-05-06T02:45:36.671Z,55.40
2018-05-06T02:48:02.642Z,55.70
2018-05-06T02:50:29.358Z,53.80
2018-05-06T02:52:55.339Z,53.30
2018-05-06T02:55:21.306Z,53.60
2018-05-06T02:57:47.274Z,53.50
2018-05-06T03:00:13.229Z,52.40
2018-05-06T03:02:39.942Z,52.30
2018-05-06T03:05:05.920Z,52.30
2018-05-06T03:07:32.618Z,52.30
2018-05-06T03:09:58.658Z,52.30
2018-05-06T03:12:24.634Z,51.90
2018-05-06T03:14:50.597Z,52.80
2018-05-06T03:17:16.574Z,51.70
2018-05-06T03:19:42.529Z,51.70
2018-05-06T03:22:08.500Z,52.30
2018-05-06T03:24:41.418Z,52.70
2018-05-06T03:27:07.494Z,52.80
2018-05-06T03:29:33.450Z,52.80
2018-05-06T03:32:00.387Z,53.70
2018-05-06T03:34:26.363Z,53.10
2018-05-06T03:36:52.309Z,52.80
2018-05-06T03:39:18.315Z,52.50
2018-05-06T03:41:44.261Z,52.30
2018-05-06T03:44:10.954Z,49.50
2018-05-06T03:46:36.913Z,49.40
2018-05-06T03:49:02.877Z,49.10
2018-05-06T03:51:29.594Z,50.40
2018-05-06T03:53:55.746Z,49.70
2018-05-06T03:59:46.998Z,48.60
2018-05-06T04:05:09.797Z,48.30
2018-05-06T04:07:35.761Z,49.40
2018-05-06T04:10:01.752Z,49.00
2018-05-06T04:12:27.789Z,47.50
2018-05-06T04:14:53.856Z,47.10
2018-05-06T04:17:19.813Z,47.70
2018-05-06T04:19:46.521Z,47.10
2018-05-06T04:22:12.478Z,47.10
2018-05-06T04:24:38.449Z,46.60
2018-05-06T04:27:05.172Z,47.70
2018-05-06T04:29:31.253Z,47.60
2018-05-06T04:31:57.223Z,48.30
2018-05-06T04:34:23.241Z,47.20
2018-05-06T04:36:49.198Z,47.30
2018-05-06T04:39:15.179Z,46.80
2018-05-06T04:41:41.906Z,46.80
2018-05-06T04:44:07.934Z,46.70
2018-05-06T04:46:34.570Z,47.60
2018-05-06T04:49:00.533Z,47.50
2018-05-06T04:51:26.493Z,46.90
2018-05-06T04:53:52.455Z,46.10
2018-05-06T04:56:18.451Z,45.90
2018-05-06T04:58:45.142Z,47.10
2018-05-06T05:01:18.125Z,47.00
2018-05-06T05:03:44.092Z,42.30
2018-05-06T05:06:10.041Z,40.00
2018-05-06T05:08:36.046Z,39.70
2018-05-06T05:11:02.037Z,38.60
2018-05-06T05:13:28.030Z,36.50
2018-05-06T05:15:54.045Z,35.40
2018-05-06T05:18:20.015Z,32.00
2018-05-06T05:20:46.070Z,29.40
2018-05-06T05:23:12.098Z,28.10
2018-05-06T05:25:38.055Z,27.20
2018-05-06T05:28:04.019Z,26.10
2018-05-06T05:30:30.068Z,25.80
2018-05-06T05:32:56.179Z,25.00
2018-05-06T05:35:22.889Z,23.50
2018-05-06T05:37:48.902Z,23.50
2018-05-06T05:40:14.874Z,23.20
2018-05-06T05:42:40.839Z,23.70
2018-05-06T05:45:07.583Z,22.60
2018-05-06T05:47:34.285Z,21.90
2018-05-06T05:50:00.274Z,21.90
2018-05-06T05:52:27.041Z,21.50
2018-05-06T05:54:53.005Z,21.40
2018-05-06T05:57:18.967Z,20.70
2018-05-06T05:59:44.942Z,21.20
2018-05-06T06:02:11.807Z,20.20
2018-05-06T06:04:37.843Z,20.20
2018-05-06T06:07:04.556Z,19.50
2018-05-06T06:09:30.561Z,19.40
2018-05-06T06:11:56.570Z,18.70
2018-05-06T06:14:22.664Z,18.60
2018-05-06T06:16:48.623Z,18.90
2018-05-06T06:19:15.343Z,17.90
2018-05-06T06:21:41.329Z,17.90
2018-05-06T06:24:07.281Z,18.10
2018-05-06T06:26:33.246Z,18.50
2018-05-06T06:28:59.809Z,17.80
2018-05-06T06:31:25.815Z,17.80
2018-05-06T06:33:51.777Z,17.40
2018-05-06T06:36:18.119Z,17.80
2018-05-06T06:38:44.081Z,17.60
2018-05-06T06:41:10.040Z,17.80
2018-05-06T06:43:36.747Z,16.30
2018-05-06T06:46:02.706Z,16.20
2018-05-06T06:48:28.722Z,15.60
2018-05-06T06:50:54.721Z,15.70
2018-05-06T06:53:20.675Z,16.40
2018-05-06T06:55:46.695Z,16.10
2018-05-06T06:58:13.402Z,15.40
2018-05-06T07:00:39.354Z,15.40
2018-05-06T07:03:06.062Z,14.70
2018-05-06T07:05:32.040Z,14.70
2018-05-06T07:07:58.792Z,15.40
2018-05-06T07:10:25.512Z,16.10
2018-05-06T07:12:51.515Z,15.50
2018-05-06T07:15:17.516Z,15.80
2018-05-06T07:17:44.249Z,16.00
2018-05-06T07:20:10.247Z,15.90
2018-05-06T07:22:36.229Z,15.30
2018-05-06T07:25:02.192Z,15.20
2018-05-06T07:27:29.322Z,16.50
2018-05-06T07:29:55.358Z,16.40
2018-05-06T07:32:21.257Z,16.20
2018-05-06T07:34:47.234Z,15.30
2018-05-06T07:37:13.199Z,15.70
2018-05-06T07:39:39.159Z,17.80
2018-05-06T07:42:06.549Z,18.70
2018-05-06T07:44:32.518Z,18.60
2018-05-06T07:46:59.237Z,18.80
2018-05-06T07:49:25.224Z,18.80
2018-05-06T07:51:51.213Z,17.30
2018-05-06T07:54:17.181Z,17.30
2018-05-06T07:56:44.002Z,18.80
2018-05-06T07:59:09.976Z,18.80
2018-05-06T08:01:36.724Z,17.80
2018-05-06T08:04:03.455Z,17.60
2018-05-06T08:06:29.451Z,17.60
2018-05-06T08:08:55.461Z,18.10
2018-05-06T08:11:21.431Z,18.60
2018-05-06T08:13:47.444Z,18.50
2018-05-06T08:16:13.449Z,18.90
2018-05-06T08:18:39.776Z,18.30
2018-05-06T08:21:05.735Z,18.80
2018-05-06T08:23:32.473Z,17.50
2018-05-06T08:25:58.473Z,17.50
2018-05-06T08:28:24.491Z,19.20
2018-05-06T08:30:50.483Z,18.20
2018-05-06T08:33:16.442Z,18.50
2018-05-06T08:35:42.429Z,19.30
2018-05-06T08:38:08.406Z,18.60
2018-05-06T08:40:35.130Z,17.50
2018-05-06T08:43:01.142Z,17.50
2018-05-06T08:45:27.235Z,18.20
2018-05-06T08:47:53.190Z,18.50
2018-05-06T08:50:19.162Z,18.20
2018-05-06T08:52:45.195Z,18.70
2018-05-06T08:55:11.162Z,17.80
2018-05-06T08:57:37.137Z,18.00
2018-05-06T09:00:03.114Z,17.90
2018-05-06T09:02:29.121Z,18.50
2018-05-06T09:04:55.147Z,19.20
2018-05-06T09:07:21.338Z,19.70
2018-05-06T09:09:48.081Z,20.50
2018-05-06T09:12:14.050Z,20.50
2018-05-06T09:14:40.044Z,20.20
2018-05-06T09:17:06.035Z,21.30
2018-05-06T09:19:32.784Z,23.00
2018-05-06T09:21:59.745Z,23.00
2018-05-06T09:24:26.510Z,23.70
2018-05-06T09:26:52.594Z,23.70
2018-05-06T09:29:21.987Z,23.90
2018-05-06T09:31:47.993Z,24.90
2018-05-06T09:34:14.019Z,25.60
2018-05-06T09:36:41.078Z,26.50
2018-05-06T09:39:08.102Z,25.70
2018-05-06T09:41:34.079Z,25.40
2018-05-06T09:44:07.906Z,26.60
2018-05-06T09:46:33.924Z,26.50
2018-05-06T09:49:00.757Z,27.30
2018-05-06T09:51:26.751Z,27.30
2018-05-06T09:53:52.805Z,27.10
2018-05-06T09:56:19.482Z,27.70
2018-05-06T09:58:45.454Z,27.70
2018-05-06T10:01:12.149Z,26.60
2018-05-06T10:03:38.510Z,26.50
2018-05-06T10:06:04.473Z,26.20
2018-05-06T10:08:31.217Z,28.60
2018-05-06T10:10:57.315Z,28.10
2018-05-06T10:13:23.696Z,28.00
2018-05-06T10:15:49.717Z,25.90
2018-05-06T10:18:15.642Z,25.30
2018-05-06T10:20:41.646Z,26.70
2018-05-06T10:23:07.683Z,27.50
2018-05-06T10:25:33.667Z,27.90
2018-05-06T10:27:59.772Z,27.00
2018-05-06T10:30:25.777Z,26.80
2018-05-06T10:32:52.494Z,27.10
2018-05-06T10:35:18.455Z,27.00
2018-05-06T10:37:46.558Z,27.60
2018-05-06T10:40:12.538Z,28.10
2018-05-06T10:42:38.513Z,28.40
2018-05-06T10:45:05.248Z,28.30
2018-05-06T10:47:31.563Z,28.30
2018-05-06T10:49:57.673Z,28.70
2018-05-06T10:52:23.652Z,28.30
2018-05-06T10:54:49.610Z,28.60
2018-05-06T10:57:16.443Z,28.40
2018-05-06T10:59:42.403Z,28.40
2018-05-06T11:02:09.110Z,28.70
2018-05-06T11:04:35.099Z,28.70
2018-05-06T11:07:01.897Z,29.20
2018-05-06T11:09:29.795Z,29.10
2018-05-06T11:11:55.784Z,28.90
2018-05-06T11:14:21.758Z,29.30
2018-05-06T11:16:47.706Z,29.00
2018-05-06T11:19:13.714Z,29.60
2018-05-06T11:21:39.682Z,29.10
2018-05-06T11:24:05.635Z,29.60
2018-05-06T11:26:33.383Z,29.90
2018-05-06T11:29:00.049Z,29.90
2018-05-06T11:31:26.149Z,29.40
2018-05-06T11:33:52.153Z,29.90
2018-05-06T11:36:18.870Z,29.80
2018-05-06T11:38:44.826Z,29.80
2018-05-06T11:41:11.654Z,29.40
2018-05-06T11:43:37.783Z,29.40
2018-05-06T11:46:03.789Z,29.70
2018-05-06T11:48:29.804Z,29.60
2018-05-06T11:50:55.855Z,29.60
2018-05-06T11:53:21.842Z,29.50
2018-05-06T11:55:47.802Z,29.00
2018-05-06T11:58:14.517Z,29.00
2018-05-06T12:00:40.476Z,29.00
2018-05-06T12:03:06.459Z,28.20
2018-05-06T12:05:32.433Z,28.10
2018-05-06T12:07:58.422Z,28.10
2018-05-06T12:10:26.058Z,28.10
2018-05-06T12:12:52.062Z,28.10
2018-05-06T12:15:18.018Z,28.50
2018-05-06T12:17:43.994Z,27.80
2018-05-06T12:20:09.970Z,27.70
2018-05-06T12:22:35.941Z,27.90
2018-05-06T12:25:02.668Z,27.70
2018-05-06T12:27:28.653Z,27.70
2018-05-06T12:29:55.412Z,27.20
2018-05-06T12:32:21.366Z,27.20
2018-05-06T12:34:47.330Z,27.80
2018-05-06T12:37:13.302Z,27.50
2018-05-06T12:39:40.010Z,27.70
2018-05-06T12:42:05.995Z,27.70
2018-05-06T12:44:33.112Z,28.60
2018-05-06T12:46:59.128Z,28.60
2018-05-06T12:49:25.268Z,28.60
2018-05-06T12:51:51.217Z,28.30
2018-05-06T12:54:17.174Z,29.20
2018-05-06T12:56:43.590Z,28.60
2018-05-06T12:59:09.621Z,28.60
2018-05-06T13:01:35.585Z,28.50
2018-05-06T13:04:04.808Z,27.70
2018-05-06T13:06:32.117Z,27.40
2018-05-06T13:08:58.464Z,27.40
2018-05-06T13:11:24.476Z,27.80
2018-05-06T13:13:50.883Z,27.80
2018-05-06T13:16:16.859Z,27.70
2018-05-06T13:18:42.814Z,27.40
2018-05-06T13:21:08.882Z,27.20
2018-05-06T13:23:34.866Z,27.30
2018-05-06T13:26:00.867Z,27.90
2018-05-06T13:28:27.182Z,28.30
2018-05-06T13:30:53.163Z,28.50
2018-05-06T13:33:19.873Z,28.70
2018-05-06T13:35:45.838Z,28.60
2018-05-06T13:38:11.814Z,27.40
2018-05-06T13:40:37.790Z,27.30
2018-05-06T13:43:04.803Z,27.40
2018-05-06T13:45:30.814Z,27.20
2018-05-06T13:47:57.537Z,28.70
2018-05-06T13:50:30.758Z,28.20
2018-05-06T13:52:56.740Z,28.20
2018-05-06T13:55:22.702Z,27.70
2018-05-06T13:57:51.387Z,28.40
2018-05-06T14:00:17.369Z,28.10
2018-05-06T14:02:43.331Z,27.70
2018-05-06T14:05:10.062Z,28.30
2018-05-06T14:07:36.017Z,28.30
2018-05-06T14:10:01.995Z,28.60
2018-05-06T14:12:28.014Z,28.10
2018-05-06T14:14:53.998Z,28.60
2018-05-06T14:17:19.946Z,28.60
2018-05-06T14:19:46.733Z,28.60
2018-05-06T14:22:12.686Z,28.50
2018-05-06T14:24:38.633Z,28.30
2018-05-06T14:27:05.643Z,28.20
2018-05-06T14:29:31.652Z,28.40
2018-05-06T14:31:57.674Z,28.40
2018-05-06T14:34:23.674Z,28.50
2018-05-06T14:36:49.633Z,29.10
2018-05-06T14:39:15.590Z,29.20
2018-05-06T14:41:41.918Z,29.40
2018-05-06T14:44:07.877Z,29.50
2018-05-06T14:46:46.263Z,29.20
2018-05-06T14:49:12.210Z,29.30
2018-05-06T14:51:38.170Z,28.80
2018-05-06T14:54:04.157Z,29.20
2018-05-06T14:56:30.201Z,29.90
2018-05-06T14:58:56.231Z,29.60
2018-05-06T15:01:22.402Z,29.90
2018-05-06T15:03:48.379Z,30.60
2018-05-06T15:06:14.354Z,30.40
2018-05-06T15:08:40.341Z,29.90
2018-05-06T15:11:07.064Z,29.00
2018-05-06T15:13:33.051Z,29.00
2018-05-06T15:15:59.108Z,29.20
2018-05-06T15:18:25.143Z,29.50
2018-05-06T15:20:51.094Z,29.80
2018-05-06T15:23:17.170Z,29.60
2018-05-06T15:25:43.910Z,29.30
2018-05-06T15:28:09.897Z,29.20
2018-05-06T15:30:35.909Z,28.90
2018-05-06T15:33:02.210Z,28.70
2018-05-06T15:35:28.960Z,29.00
2018-05-06T15:37:55.018Z,28.90
2018-05-06T15:40:21.722Z,28.90
2018-05-06T15:42:47.698Z,28.60
2018-05-06T15:45:13.693Z,28.80
2018-05-06T15:47:39.657Z,29.10
2018-05-06T15:50:05.614Z,28.40
2018-05-06T15:52:31.763Z,28.30
2018-05-06T15:54:57.996Z,28.40
2018-05-06T15:57:24.733Z,28.40
2018-05-06T15:59:50.751Z,28.20
2018-05-06T16:05:28.448Z,28.20
2018-05-06T16:07:54.503Z,28.50
2018-05-06T16:10:20.857Z,28.00
2018-05-06T16:12:46.851Z,28.20
2018-05-06T16:15:13.881Z,28.20
2018-05-06T16:17:39.881Z,28.20
2018-05-06T16:20:05.853Z,28.30
2018-05-06T16:22:31.941Z,28.60
2018-05-06T16:24:57.878Z,28.40
2018-05-06T16:27:23.889Z,28.40
2018-05-06T16:29:50.610Z,28.80
2018-05-06T16:32:16.561Z,28.60
2018-05-06T16:34:42.525Z,28.70
2018-05-06T16:37:09.230Z,28.90
2018-05-06T16:39:35.193Z,29.00
2018-05-06T16:42:01.219Z,28.90
2018-05-06T16:44:27.995Z,29.40
2018-05-06T16:46:54.006Z,29.30
2018-05-06T16:49:20.005Z,29.40
2018-05-06T16:51:45.975Z,29.90
2018-05-06T16:54:11.934Z,29.70
2018-05-06T16:56:38.673Z,30.10
2018-05-06T16:59:04.657Z,30.00
2018-05-06T17:01:30.727Z,30.10
2018-05-06T17:03:56.841Z,30.30
2018-05-06T17:06:22.829Z,30.50
2018-05-06T17:08:48.791Z,31.00
2018-05-06T17:11:14.979Z,31.40
2018-05-06T17:13:40.946Z,31.60
2018-05-06T17:16:07.670Z,32.20
2018-05-06T17:18:33.700Z,32.20
2018-05-06T17:21:00.502Z,32.30
2018-05-06T17:23:27.234Z,32.40
2018-05-06T17:25:53.972Z,32.90
2018-05-06T17:28:19.959Z,32.70
2018-05-06T17:30:45.930Z,32.90
2018-05-06T17:33:11.902Z,33.30
2018-05-06T17:35:38.615Z,33.30
2018-05-06T17:38:04.582Z,33.30
2018-05-06T17:40:30.691Z,33.30
2018-05-06T17:42:56.674Z,33.80
2018-05-06T17:45:22.953Z,33.70
2018-05-06T17:47:48.923Z,33.90
2018-05-06T17:50:14.879Z,34.10
2018-05-06T17:52:41.626Z,34.90
2018-05-06T17:55:08.366Z,35.10
2018-05-06T17:57:34.326Z,35.00
2018-05-06T18:00:01.067Z,36.00
2018-05-06T18:02:27.835Z,35.90
2018-05-06T18:04:53.834Z,35.80
2018-05-06T18:07:19.837Z,35.80
2018-05-06T18:09:45.997Z,35.80
2018-05-06T18:12:11.950Z,36.20
2018-05-06T18:14:37.909Z,36.60
2018-05-06T18:17:04.642Z,36.70
2018-05-06T18:19:30.665Z,36.60
2018-05-06T18:21:56.690Z,36.90
2018-05-06T18:24:22.674Z,37.20
2018-05-06T18:26:49.357Z,37.80
2018-05-06T18:29:15.318Z,37.80
2018-05-06T18:31:41.456Z,37.90
2018-05-06T18:34:07.413Z,38.10
2018-05-06T18:36:34.120Z,38.70
2018-05-06T18:39:00.122Z,38.60
2018-05-06T18:41:26.957Z,38.30
2018-05-06T18:43:52.942Z,38.20
2018-05-06T18:46:18.937Z,39.20
2018-05-06T18:48:45.654Z,39.10
2018-05-06T18:51:11.602Z,39.00
2018-05-06T18:53:37.568Z,39.30
2018-05-06T18:56:04.527Z,39.60
2018-05-06T18:58:31.266Z,39.80
2018-05-06T19:00:58.029Z,40.40
2018-05-06T19:03:24.774Z,40.60
2018-05-06T19:05:50.731Z,40.50
2018-05-06T19:08:16.702Z,40.70
2018-05-06T19:10:42.772Z,41.00
2018-05-06T19:13:08.716Z,41.50
2018-05-06T19:15:35.421Z,42.90
2018-05-06T19:18:01.402Z,42.30
2018-05-06T19:20:27.395Z,42.20
2018-05-06T19:22:54.390Z,42.20
2018-05-06T19:25:21.098Z,42.60
2018-05-06T19:27:47.044Z,42.60
2018-05-06T19:30:13.031Z,43.10
2018-05-06T19:32:39.801Z,42.70
2018-05-06T19:35:05.690Z,42.70
2018-05-06T19:37:31.839Z,43.10
2018-05-06T19:39:57.818Z,43.50
2018-05-06T19:42:23.972Z,43.10
2018-05-06T19:44:49.959Z,43.10
2018-05-06T19:47:16.666Z,43.50
2018-05-06T19:49:42.642Z,43.30
2018-05-06T19:52:09.352Z,43.70
2018-05-06T19:54:35.297Z,43.30
2018-05-06T19:57:01.462Z,43.60
2018-05-06T19:59:28.426Z,43.60
2018-05-06T20:01:54.866Z,43.50
2018-05-06T20:04:20.820Z,43.50
2018-05-06T20:06:47.563Z,43.10
2018-05-06T20:09:13.514Z,43.00
2018-05-06T20:11:40.210Z,43.10
2018-05-06T20:14:13.173Z,43.10
2018-05-06T20:16:39.927Z,43.20
2018-05-06T20:19:05.886Z,43.20
2018-05-06T20:21:32.742Z,43.00
2018-05-06T20:23:58.727Z,42.90
2018-05-06T20:26:24.733Z,42.70
2018-05-06T20:28:50.719Z,42.80
2018-05-06T20:31:17.495Z,43.40
2018-05-06T20:33:43.368Z,43.40
2018-05-06T20:36:09.368Z,43.60
2018-05-06T20:38:35.342Z,44.00
2018-05-06T20:41:01.595Z,45.00
2018-05-06T20:43:27.838Z,44.40
2018-05-06T20:45:53.791Z,44.50
2018-05-06T20:48:20.495Z,44.70
2018-05-06T20:50:46.511Z,44.60
2018-05-06T20:53:12.466Z,45.00
2018-05-06T20:55:38.430Z,45.10
2018-05-06T20:58:04.427Z,45.20
2018-05-06T21:00:30.461Z,45.30
2018-05-06T21:02:56.549Z,45.40
2018-05-06T21:05:22.710Z,45.60
2018-05-06T21:07:48.634Z,45.90
2018-05-06T21:10:15.337Z,46.10
2018-05-06T21:12:41.366Z,46.10
2018-05-06T21:15:07.314Z,46.20
2018-05-06T21:17:33.269Z,46.30
2018-05-06T21:20:01.032Z,46.80
2018-05-06T21:22:27.071Z,46.70
2018-05-06T21:24:53.038Z,46.80
2018-05-06T21:27:20.362Z,47.20
2018-05-06T21:29:46.339Z,47.20
2018-05-06T21:32:12.265Z,47.40
2018-05-06T21:34:38.993Z,47.60
2018-05-06T21:37:05.035Z,48.10
2018-05-06T21:39:31.649Z,47.80
2018-05-06T21:41:57.839Z,47.70
2018-05-06T21:44:24.724Z,48.40
2018-05-06T21:46:51.400Z,48.00
2018-05-06T21:49:17.381Z,48.00
2018-05-06T21:51:43.335Z,48.40
2018-05-06T21:54:09.290Z,48.40
2018-05-06T21:56:35.466Z,48.40
2018-05-06T21:59:01.445Z,48.30
2018-05-06T22:01:28.181Z,48.70
2018-05-06T22:03:54.166Z,48.70
2018-05-06T22:06:20.154Z,49.30
2018-05-06T22:08:46.110Z,48.90
2018-05-06T22:11:12.846Z,48.90
2018-05-06T22:13:39.625Z,49.20
2018-05-06T22:16:05.833Z,49.20
2018-05-06T22:18:31.937Z,49.60
2018-05-06T22:20:57.956Z,49.80
2018-05-06T22:23:23.926Z,49.60
2018-05-06T22:25:49.895Z,49.70
2018-05-06T22:28:16.581Z,50.20
2018-05-06T22:30:42.537Z,50.20
2018-05-06T22:33:08.525Z,50.20
2018-05-06T22:35:34.489Z,50.30
2018-05-06T22:38:00.475Z,50.20
2018-05-06T22:40:27.250Z,50.60
2018-05-06T22:42:53.205Z,50.60
2018-05-06T22:45:19.166Z,50.80
2018-05-06T22:47:45.143Z,50.80
2018-05-06T22:50:11.829Z,51.40
2018-05-06T22:52:37.801Z,51.30
2018-05-06T22:55:03.779Z,51.20
2018-05-06T22:57:29.797Z,51.30
2018-05-06T22:59:55.798Z,51.50
2018-05-06T23:02:21.814Z,51.40
2018-05-06T23:04:47.781Z,51.50
2018-05-06T23:07:13.726Z,51.40
2018-05-06T23:09:39.694Z,51.50
2018-05-06T23:12:05.645Z,51.80
2018-05-06T23:14:31.615Z,52.10
2018-05-06T23:16:57.799Z,52.20
2018-05-06T23:19:23.755Z,52.10
2018-05-06T23:21:49.710Z,52.40
2018-05-06T23:24:15.714Z,52.40
2018-05-06T23:26:41.674Z,52.40
2018-05-06T23:29:07.651Z,52.30
2018-05-06T23:31:33.624Z,52.20
2018-05-06T23:33:59.594Z,52.50
2018-05-06T23:36:25.653Z,52.80
2018-05-06T23:38:51.765Z,52.80
2018-05-06T23:41:17.764Z,53.50
2018-05-06T23:43:43.730Z,53.50
2018-05-06T23:46:09.689Z,53.40
2018-05-06T23:48:35.669Z,53.50
2018-05-06T23:51:02.349Z,54.20
2018-05-06T23:53:29.018Z,54.10
2018-05-06T23:55:54.986Z,54.60
2018-05-06T23:58:21.686Z,54.50
